Time;durP1;ratioP1;P1;durP2;ratioP2;P2;SDS_P1;SDS_P2;PMS_P1;PMS_P2;Temp;Humidity;BMP_temperature;BMP_pressure;BME280_temperature;BME280_humidity;BME280_pressure;Samples;Min_cycle;Max_cycle;Signal;HPM_P1;HPM_P2
2023/09/13 00:01:39;;;;;;;3.60;3.30;;;;;;;;;;4950618;28;20213;-73
2023/09/13 00:04:05;;;;;;;3.93;3.23;;;;;;;;;;4948954;28;20192;-73
2023/09/13 00:06:30;;;;;;;3.27;2.83;;;;;;;;;;4945540;28;20214;-73
2023/09/13 00:08:55;;;;;;;3.40;2.87;;;;;;;;;;4946086;28;20270;-73
2023/09/13 00:11:20;;;;;;;3.10;2.80;;;;;;;;;;4948075;28;20269;-74
2023/09/13 00:13:46;;;;;;;3.97;3.20;;;;;;;;;;4945980;28;20346;-75
2023/09/13 00:16:11;;;;;;;3.57;3.27;;;;;;;;;;4948765;28;20243;-75
2023/09/13 00:18:36;;;;;;;3.17;2.87;;;;;;;;;;4946915;28;20182;-74
2023/09/13 00:21:02;;;;;;;4.50;3.43;;;;;;;;;;4950296;28;20211;-75
2023/09/13 00:23:27;;;;;;;3.20;3.00;;;;;;;;;;4950477;28;20220;-74
2023/09/13 00:25:52;;;;;;;3.20;3.00;;;;;;;;;;4948649;28;20190;-75
2023/09/13 00:28:17;;;;;;;3.00;2.80;;;;;;;;;;4951488;28;20180;-74
2023/09/13 00:30:42;;;;;;;3.33;2.50;;;;;;;;;;4942258;28;20792;-75
2023/09/13 00:33:08;;;;;;;5.53;3.10;;;;;;;;;;4947234;28;20283;-75
2023/09/13 00:35:33;;;;;;;3.43;2.63;;;;;;;;;;4940849;29;20304;-75
2023/09/13 00:37:58;;;;;;;3.20;2.90;;;;;;;;;;4950674;28;20186;-74
2023/09/13 00:40:23;;;;;;;3.37;2.93;;;;;;;;;;4948934;28;20274;-74
2023/09/13 00:42:49;;;;;;;4.03;3.30;;;;;;;;;;4948726;29;20291;-74
2023/09/13 00:45:14;;;;;;;3.10;2.80;;;;;;;;;;4944802;29;20185;-74
2023/09/13 00:47:40;;;;;;;3.33;3.03;;;;;;;;;;4950075;28;20199;-74
2023/09/13 00:50:07;;;;;;;3.53;3.23;;;;;;;;;;4950252;28;20283;-74
2023/09/13 00:52:32;;;;;;;3.77;3.23;;;;;;;;;;4948138;28;20179;-74
2023/09/13 00:54:58;;;;;;;3.23;2.93;;;;;;;;;;4952264;29;20234;-74
2023/09/13 00:57:23;;;;;;;3.50;3.13;;;;;;;;;;4952076;28;20184;-73
2023/09/13 00:59:48;;;;;;;3.47;3.00;;;;;;;;;;4953525;29;20257;-74
2023/09/13 01:02:14;;;;;;;2.93;2.63;;;;;;;;;;4942136;29;20232;-74
2023/09/13 01:04:39;;;;;;;2.87;2.67;;;;;;;;;;4944791;29;20181;-74
2023/09/13 01:07:08;;;;;;;3.23;2.90;;;;;;;;;;4954923;28;20220;-74
2023/09/13 01:09:33;;;;;;;4.10;2.70;;;;;;;;;;4950012;28;20184;-73
2023/09/13 01:11:59;;;;;;;2.97;2.60;;;;;;;;;;4944931;28;20185;-74
2023/09/13 01:14:24;;;;;;;3.90;3.27;;;;;;;;;;4945357;28;20194;-73
2023/09/13 01:16:56;;;;;;;3.30;3.03;;;;;;;;;;4950128;28;20279;-74
2023/09/13 01:19:36;;;;;;;3.63;3.10;;;;;;;;;;4952134;28;20182;-74
2023/09/13 01:22:20;;;;;;;2.70;2.50;;;;;;;;;;4949165;28;20198;-74
2023/09/13 01:25:01;;;;;;;3.67;3.03;;;;;;;;;;4949612;28;20259;-73
2023/09/13 01:27:44;;;;;;;3.20;2.97;;;;;;;;;;4943656;29;20193;-73
2023/09/13 01:30:10;;;;;;;3.80;3.50;;;;;;;;;;4950210;28;20241;-74
2023/09/13 01:32:36;;;;;;;3.67;3.23;;;;;;;;;;4948732;28;20186;-74
2023/09/13 01:35:01;;;;;;;3.27;2.97;;;;;;;;;;4949995;29;20208;-74
2023/09/13 01:37:29;;;;;;;2.97;2.77;;;;;;;;;;4952855;28;20262;-73
2023/09/13 01:39:54;;;;;;;5.77;2.60;;;;;;;;;;4948978;28;20190;-74
2023/09/13 01:42:20;;;;;;;2.90;2.70;;;;;;;;;;4951269;28;20367;-74
2023/09/13 01:44:45;;;;;;;3.23;2.93;;;;;;;;;;4948963;29;20183;-74
2023/09/13 01:47:12;;;;;;;3.80;3.50;;;;;;;;;;4951190;29;20197;-74
2023/09/13 01:49:38;;;;;;;3.67;3.37;;;;;;;;;;4945593;28;20484;-74
2023/09/13 01:52:04;;;;;;;3.93;3.53;;;;;;;;;;4951248;28;20191;-73
2023/09/13 01:54:32;;;;;;;3.70;3.27;;;;;;;;;;4951627;28;20192;-73
2023/09/13 01:56:57;;;;;;;3.53;3.23;;;;;;;;;;4952778;28;20294;-73
2023/09/13 01:59:22;;;;;;;4.27;3.47;;;;;;;;;;4951322;28;20287;-73
2023/09/13 02:01:48;;;;;;;3.53;3.23;;;;;;;;;;4951147;28;20206;-73
2023/09/13 02:04:13;;;;;;;3.33;2.80;;;;;;;;;;4949454;28;20213;-73
2023/09/13 02:06:39;;;;;;;3.90;3.60;;;;;;;;;;4948776;28;20172;-73
2023/09/13 02:09:04;;;;;;;3.47;3.20;;;;;;;;;;4950317;28;20217;-73
2023/09/13 02:11:30;;;;;;;3.77;3.47;;;;;;;;;;4951534;28;20220;-73
2023/09/13 02:13:55;;;;;;;4.20;3.03;;;;;;;;;;4950354;28;20194;-73
2023/09/13 02:16:21;;;;;;;3.60;3.30;;;;;;;;;;4953295;28;20182;-73
2023/09/13 02:18:46;;;;;;;3.80;3.50;;;;;;;;;;4950859;29;20254;-74
2023/09/13 02:21:11;;;;;;;3.50;3.20;;;;;;;;;;4947066;28;20236;-73
2023/09/13 02:23:36;;;;;;;6.50;3.37;;;;;;;;;;4951652;28;20201;-73
2023/09/13 02:26:03;;;;;;;4.00;3.60;;;;;;;;;;4952127;28;20193;-73
2023/09/13 02:28:29;;;;;;;4.30;3.40;;;;;;;;;;4952253;28;20232;-73
2023/09/13 02:30:55;;;;;;;4.37;3.70;;;;;;;;;;4951562;28;20237;-73
2023/09/13 02:33:20;;;;;;;3.93;3.53;;;;;;;;;;4951042;28;20189;-73
2023/09/13 02:35:46;;;;;;;5.13;3.80;;;;;;;;;;4950714;28;20280;-73
2023/09/13 02:38:12;;;;;;;4.40;4.00;;;;;;;;;;4953247;28;20214;-73
2023/09/13 02:40:37;;;;;;;4.73;4.00;;;;;;;;;;4951120;28;20201;-73
2023/09/13 02:43:02;;;;;;;4.33;3.63;;;;;;;;;;4950669;28;20245;-73
2023/09/13 02:45:29;;;;;;;3.80;3.40;;;;;;;;;;4948451;28;20178;-73
2023/09/13 02:47:54;;;;;;;5.73;4.30;;;;;;;;;;4947683;28;20170;-73
2023/09/13 02:50:19;;;;;;;6.33;4.23;;;;;;;;;;4950076;28;20272;-73
2023/09/13 02:52:45;;;;;;;4.50;4.10;;;;;;;;;;4950395;28;20196;-73
2023/09/13 02:55:10;;;;;;;4.50;4.07;;;;;;;;;;4953569;28;20325;-73
2023/09/13 02:57:35;;;;;;;3.97;3.60;;;;;;;;;;4946297;28;20288;-73
2023/09/13 03:00:00;;;;;;;4.63;3.73;;;;;;;;;;4950665;28;20273;-73
2023/09/13 03:02:26;;;;;;;4.77;4.03;;;;;;;;;;4950149;28;20280;-73
2023/09/13 03:04:52;;;;;;;4.77;4.37;;;;;;;;;;4951750;28;20203;-74
2023/09/13 03:07:18;;;;;;;5.17;4.60;;;;;;;;;;4947251;28;20210;-73
2023/09/13 03:09:46;;;;;;;4.20;3.80;;;;;;;;;;4947834;28;20177;-73
2023/09/13 03:12:12;;;;;;;4.90;4.50;;;;;;;;;;4948949;28;20213;-72
2023/09/13 03:14:38;;;;;;;5.03;4.13;;;;;;;;;;4944331;28;20220;-73
2023/09/13 03:17:03;;;;;;;6.27;5.23;;;;;;;;;;4947292;28;20193;-73
2023/09/13 03:19:31;;;;;;;5.27;4.80;;;;;;;;;;4947134;28;20231;-73
2023/09/13 03:21:57;;;;;;;5.20;4.70;;;;;;;;;;4948880;28;20239;-73
2023/09/13 03:24:23;;;;;;;6.63;4.70;;;;;;;;;;4951602;28;20177;-73
2023/09/13 03:26:48;;;;;;;5.83;5.33;;;;;;;;;;4946339;28;20223;-74
2023/09/13 03:29:15;;;;;;;6.23;5.60;;;;;;;;;;4945115;28;20175;-74
2023/09/13 03:31:40;;;;;;;5.63;5.13;;;;;;;;;;4943435;28;20180;-73
2023/09/13 03:34:06;;;;;;;5.40;4.70;;;;;;;;;;4946429;29;20184;-73
2023/09/13 03:36:31;;;;;;;6.80;5.00;;;;;;;;;;4946768;29;20204;-73
2023/09/13 03:38:56;;;;;;;5.40;4.90;;;;;;;;;;4943772;29;20184;-73
2023/09/13 03:41:22;;;;;;;5.33;4.83;;;;;;;;;;4949666;28;20168;-74
2023/09/13 03:43:49;;;;;;;5.37;4.87;;;;;;;;;;4948230;29;20206;-73
2023/09/13 03:46:14;;;;;;;5.77;5.27;;;;;;;;;;4945835;28;20183;-73
2023/09/13 03:48:40;;;;;;;5.47;4.97;;;;;;;;;;4954251;28;20175;-73
2023/09/13 03:51:05;;;;;;;5.40;4.93;;;;;;;;;;4947471;29;20177;-73
2023/09/13 03:53:31;;;;;;;5.83;5.10;;;;;;;;;;4947321;29;20183;-73
2023/09/13 03:55:57;;;;;;;5.93;4.90;;;;;;;;;;4944177;28;20246;-73
2023/09/13 03:58:22;;;;;;;5.53;5.00;;;;;;;;;;4946928;28;20238;-73
2023/09/13 04:00:48;;;;;;;7.13;6.33;;;;;;;;;;4939932;28;20235;-73
2023/09/13 04:03:14;;;;;;;6.70;5.60;;;;;;;;;;4944298;28;20216;-73
2023/09/13 04:05:39;;;;;;;5.73;5.13;;;;;;;;;;4942714;28;20172;-73
2023/09/13 04:08:04;;;;;;;6.83;6.13;;;;;;;;;;4951424;28;20183;-73
2023/09/13 04:10:29;;;;;;;6.13;5.27;;;;;;;;;;4950563;28;20198;-73
2023/09/13 04:12:54;;;;;;;6.03;5.50;;;;;;;;;;4944647;28;20192;-73
2023/09/13 04:15:20;;;;;;;6.13;5.50;;;;;;;;;;4949107;28;20191;-73
2023/09/13 04:17:45;;;;;;;7.70;5.67;;;;;;;;;;4949107;28;20201;-73
2023/09/13 04:20:11;;;;;;;6.33;5.73;;;;;;;;;;4947020;29;20188;-73
2023/09/13 04:22:36;;;;;;;6.60;6.00;;;;;;;;;;4948279;29;20286;-73
2023/09/13 04:25:01;;;;;;;6.07;5.47;;;;;;;;;;4946612;28;20232;-73
2023/09/13 04:27:27;;;;;;;6.00;5.33;;;;;;;;;;4952373;29;20239;-73
2023/09/13 04:29:54;;;;;;;7.23;6.53;;;;;;;;;;4951820;29;20172;-73
2023/09/13 04:32:20;;;;;;;8.83;6.37;;;;;;;;;;4953401;28;20219;-73
2023/09/13 04:34:46;;;;;;;6.90;6.27;;;;;;;;;;4951909;28;20208;-74
2023/09/13 04:37:11;;;;;;;6.83;6.23;;;;;;;;;;4941597;28;20190;-73
2023/09/13 04:39:37;;;;;;;7.20;6.60;;;;;;;;;;4950408;28;20193;-73
2023/09/13 04:42:02;;;;;;;6.33;5.73;;;;;;;;;;4950148;28;20207;-73
2023/09/13 04:44:27;;;;;;;6.30;5.70;;;;;;;;;;4953156;28;20187;-73
2023/09/13 04:46:53;;;;;;;6.43;5.93;;;;;;;;;;4953063;28;20181;-74
2023/09/13 04:49:18;;;;;;;6.57;5.97;;;;;;;;;;4952992;28;20183;-73
2023/09/13 04:51:43;;;;;;;6.27;5.77;;;;;;;;;;4950740;28;20257;-73
2023/09/13 04:54:08;;;;;;;8.90;6.27;;;;;;;;;;4948754;28;20187;-73
2023/09/13 04:56:37;;;;;;;5.83;5.20;;;;;;;;;;4950116;28;20273;-85
2023/09/13 04:59:03;;;;;;;6.20;5.70;;;;;;;;;;4951792;29;20195;-75
2023/09/13 05:01:28;;;;;;;6.97;5.33;;;;;;;;;;4953836;29;20179;-76
2023/09/13 05:03:54;;;;;;;6.00;5.50;;;;;;;;;;4952339;29;20200;-76
2023/09/13 05:06:19;;;;;;;6.43;5.33;;;;;;;;;;4952781;28;20196;-76
2023/09/13 05:08:45;;;;;;;5.50;5.00;;;;;;;;;;4952368;29;20165;-76
2023/09/13 05:11:10;;;;;;;5.40;4.90;;;;;;;;;;4952437;29;20187;-76
2023/09/13 05:13:39;;;;;;;5.17;4.03;;;;;;;;;;4942639;28;20183;-75
2023/09/13 05:16:04;;;;;;;5.40;4.90;;;;;;;;;;4952767;29;20175;-76
2023/09/13 05:18:29;;;;;;;5.80;5.30;;;;;;;;;;4952214;29;20182;-75
2023/09/13 05:20:55;;;;;;;5.30;4.80;;;;;;;;;;4949877;29;20263;-76
2023/09/13 05:23:20;;;;;;;5.57;4.80;;;;;;;;;;4958385;28;20287;-75
2023/09/13 05:25:45;;;;;;;6.03;4.97;;;;;;;;;;4951350;29;20185;-75
2023/09/13 05:28:12;;;;;;;5.60;5.00;;;;;;;;;;4954591;28;20288;-75
2023/09/13 05:30:37;;;;;;;5.13;4.57;;;;;;;;;;4952512;28;20176;-75
2023/09/13 05:33:02;;;;;;;10.53;4.80;;;;;;;;;;4952625;29;20194;-75
2023/09/13 05:35:31;;;;;;;7.57;5.27;;;;;;;;;;4953793;28;20176;-76
2023/09/13 05:37:57;;;;;;;6.47;4.77;;;;;;;;;;4951774;28;20446;-76
2023/09/13 05:40:22;;;;;;;8.57;4.33;;;;;;;;;;4949852;28;20257;-75
2023/09/13 05:42:47;;;;;;;4.73;4.33;;;;;;;;;;4951622;28;20206;-76
2023/09/13 05:45:12;;;;;;;5.93;5.33;;;;;;;;;;4951321;28;20274;-75
2023/09/13 05:47:38;;;;;;;6.20;5.30;;;;;;;;;;4947536;28;20212;-76
2023/09/13 05:50:03;;;;;;;5.43;4.93;;;;;;;;;;4947303;28;20188;-75
2023/09/13 05:52:28;;;;;;;7.37;5.13;;;;;;;;;;4946215;28;20188;-76
2023/09/13 05:54:53;;;;;;;4.97;4.57;;;;;;;;;;4952335;28;20199;-76
2023/09/13 05:57:19;;;;;;;7.20;4.50;;;;;;;;;;4947241;28;20193;-76
2023/09/13 05:59:44;;;;;;;5.87;4.97;;;;;;;;;;4951544;29;20295;-76
2023/09/13 06:02:09;;;;;;;6.20;5.07;;;;;;;;;;4953399;29;20232;-76
2023/09/13 06:04:34;;;;;;;6.20;4.97;;;;;;;;;;4951760;29;20264;-76
2023/09/13 06:07:00;;;;;;;5.90;4.70;;;;;;;;;;4952832;28;20219;-76
2023/09/13 06:09:25;;;;;;;5.53;4.20;;;;;;;;;;4951997;29;20264;-76
2023/09/13 06:11:50;;;;;;;7.23;4.30;;;;;;;;;;4948156;29;20328;-76
2023/09/13 06:14:18;;;;;;;4.07;3.67;;;;;;;;;;4947261;28;20181;-75
2023/09/13 06:16:43;;;;;;;4.77;4.37;;;;;;;;;;4950253;29;20264;-75
2023/09/13 06:19:08;;;;;;;5.47;4.97;;;;;;;;;;4952703;29;20273;-76
2023/09/13 06:21:34;;;;;;;4.43;4.10;;;;;;;;;;4950803;29;20187;-76
2023/09/13 06:23:59;;;;;;;6.20;3.90;;;;;;;;;;4953133;29;20243;-76
2023/09/13 06:26:24;;;;;;;5.23;4.73;;;;;;;;;;4950456;29;20187;-75
2023/09/13 06:28:49;;;;;;;4.83;4.33;;;;;;;;;;4947878;29;20225;-76
2023/09/13 06:31:15;;;;;;;5.47;4.97;;;;;;;;;;4950829;28;20181;-75
2023/09/13 06:33:40;;;;;;;6.50;4.97;;;;;;;;;;4949679;28;20214;-76
2023/09/13 06:36:05;;;;;;;5.03;4.53;;;;;;;;;;4951497;29;20203;-75
2023/09/13 06:38:31;;;;;;;6.57;4.87;;;;;;;;;;4950937;29;20231;-75
2023/09/13 06:40:56;;;;;;;8.67;4.90;;;;;;;;;;4951313;28;20176;-76
2023/09/13 06:43:22;;;;;;;5.30;4.40;;;;;;;;;;4952359;28;20253;-75
2023/09/13 06:45:47;;;;;;;5.63;5.13;;;;;;;;;;4950438;28;20176;-75
2023/09/13 06:48:13;;;;;;;4.83;4.43;;;;;;;;;;4950031;28;20177;-76
2023/09/13 06:50:38;;;;;;;5.00;4.50;;;;;;;;;;4952649;28;20182;-76
2023/09/13 06:53:04;;;;;;;5.40;4.80;;;;;;;;;;4951534;28;20175;-75
2023/09/13 06:55:31;;;;;;;4.90;4.50;;;;;;;;;;4953185;28;20245;-75
2023/09/13 06:57:56;;;;;;;12.03;5.80;;;;;;;;;;4948823;28;20180;-76
2023/09/13 07:00:21;;;;;;;16.70;5.53;;;;;;;;;;4950839;28;20184;-76
2023/09/13 07:02:47;;;;;;;19.73;5.73;;;;;;;;;;4949175;28;20200;-76
2023/09/13 07:05:13;;;;;;;17.23;5.80;;;;;;;;;;4948869;28;20190;-76
2023/09/13 07:07:38;;;;;;;8.50;5.40;;;;;;;;;;4948199;28;20187;-76
2023/09/13 07:10:03;;;;;;;6.30;3.90;;;;;;;;;;4948099;28;20227;-75
2023/09/13 07:12:29;;;;;;;7.30;4.43;;;;;;;;;;4952340;28;20178;-76
2023/09/13 07:14:54;;;;;;;4.77;4.30;;;;;;;;;;4949092;28;20177;-75
2023/09/13 07:17:19;;;;;;;4.60;4.20;;;;;;;;;;4951101;28;20171;-75
2023/09/13 07:19:45;;;;;;;4.93;4.53;;;;;;;;;;4948621;28;20199;-76
2023/09/13 07:22:10;;;;;;;5.67;4.87;;;;;;;;;;4951305;28;20238;-76
2023/09/13 07:24:35;;;;;;;5.03;4.10;;;;;;;;;;4948953;28;20180;-75
2023/09/13 07:27:01;;;;;;;5.17;4.60;;;;;;;;;;4952172;28;20162;-76
2023/09/13 07:29:26;;;;;;;9.33;5.30;;;;;;;;;;4951675;28;20182;-75
2023/09/13 07:31:51;;;;;;;4.43;4.10;;;;;;;;;;4950354;28;20176;-75
2023/09/13 07:34:16;;;;;;;5.17;4.70;;;;;;;;;;4946864;28;20189;-75
2023/09/13 07:36:42;;;;;;;4.83;4.37;;;;;;;;;;4951320;28;20172;-76
2023/09/13 07:39:09;;;;;;;9.23;5.43;;;;;;;;;;4946954;28;20184;-76
2023/09/13 07:41:34;;;;;;;6.67;4.67;;;;;;;;;;4950066;28;20180;-76
2023/09/13 07:43:59;;;;;;;4.27;3.93;;;;;;;;;;4947138;28;20208;-76
2023/09/13 07:46:24;;;;;;;20.13;5.87;;;;;;;;;;4949580;28;20205;-76
2023/09/13 07:48:50;;;;;;;7.13;4.33;;;;;;;;;;4949363;28;20175;-76
2023/09/13 07:51:15;;;;;;;5.33;4.60;;;;;;;;;;4949009;28;20177;-76
2023/09/13 07:53:41;;;;;;;5.70;4.80;;;;;;;;;;4949626;28;20294;-76
2023/09/13 07:56:06;;;;;;;9.70;5.00;;;;;;;;;;4943834;28;20251;-75
2023/09/13 07:58:31;;;;;;;6.90;4.50;;;;;;;;;;4944105;28;20235;-76
2023/09/13 08:00:56;;;;;;;13.60;5.10;;;;;;;;;;4949585;28;20184;-75
2023/09/13 08:03:22;;;;;;;9.90;4.70;;;;;;;;;;4950217;28;20251;-76
2023/09/13 08:05:47;;;;;;;5.17;4.70;;;;;;;;;;4948655;28;20174;-76
2023/09/13 08:08:15;;;;;;;4.80;4.40;;;;;;;;;;4950237;28;20178;-76
2023/09/13 08:10:40;;;;;;;3.90;3.53;;;;;;;;;;4948364;28;20505;-75
2023/09/13 08:13:06;;;;;;;5.20;4.67;;;;;;;;;;4949334;28;20240;-76
2023/09/13 08:15:31;;;;;;;4.60;4.20;;;;;;;;;;4947851;28;20181;-76
2023/09/13 08:17:56;;;;;;;4.20;3.67;;;;;;;;;;4950519;28;20182;-76
2023/09/13 08:20:22;;;;;;;6.40;4.63;;;;;;;;;;4948016;28;20180;-76
2023/09/13 08:22:47;;;;;;;5.20;4.70;;;;;;;;;;4950482;28;20200;-75
2023/09/13 08:25:12;;;;;;;4.77;4.37;;;;;;;;;;4949620;28;20179;-75
2023/09/13 08:27:37;;;;;;;10.70;4.23;;;;;;;;;;4950186;28;20176;-76
2023/09/13 08:30:04;;;;;;;4.10;3.70;;;;;;;;;;4952106;28;20181;-75
2023/09/13 08:32:29;;;;;;;5.70;4.20;;;;;;;;;;4950077;28;20181;-76
2023/09/13 08:34:55;;;;;;;4.67;3.97;;;;;;;;;;4945842;28;20180;-76
2023/09/13 08:37:21;;;;;;;4.73;4.33;;;;;;;;;;4950647;28;20184;-75
2023/09/13 08:39:46;;;;;;;4.37;3.97;;;;;;;;;;4949723;28;20188;-75
2023/09/13 08:42:12;;;;;;;4.57;3.93;;;;;;;;;;4951442;28;20195;-75
2023/09/13 08:44:38;;;;;;;5.50;3.97;;;;;;;;;;4947851;28;20282;-75
2023/09/13 08:47:04;;;;;;;4.00;3.70;;;;;;;;;;4944889;28;20315;-76
2023/09/13 08:49:31;;;;;;;4.53;4.13;;;;;;;;;;4949657;28;20192;-76
2023/09/13 08:51:56;;;;;;;4.53;4.13;;;;;;;;;;4950138;28;20173;-76
2023/09/13 08:54:22;;;;;;;3.63;3.33;;;;;;;;;;4949558;28;20183;-76
2023/09/13 08:56:47;;;;;;;4.23;3.70;;;;;;;;;;4948763;28;20325;-76
2023/09/13 08:59:13;;;;;;;4.33;3.87;;;;;;;;;;4949653;28;20172;-75
2023/09/13 09:01:39;;;;;;;7.43;4.50;;;;;;;;;;4949459;28;20273;-76
2023/09/13 09:04:04;;;;;;;7.33;4.20;;;;;;;;;;4951361;28;20292;-76
2023/09/13 09:06:30;;;;;;;4.20;3.80;;;;;;;;;;4949874;28;20337;-76
2023/09/13 09:08:56;;;;;;;4.13;3.73;;;;;;;;;;4949087;28;20187;-76
2023/09/13 09:11:22;;;;;;;4.30;3.90;;;;;;;;;;4949758;28;20190;-75
2023/09/13 09:13:48;;;;;;;6.43;3.90;;;;;;;;;;4951688;28;20182;-75
2023/09/13 09:16:15;;;;;;;5.33;3.40;;;;;;;;;;4954293;28;20214;-76
2023/09/13 09:18:42;;;;;;;5.10;3.20;;;;;;;;;;4952027;28;20178;-75
2023/09/13 09:21:07;;;;;;;3.23;3.03;;;;;;;;;;4950456;28;20181;-76
2023/09/13 09:23:34;;;;;;;3.40;3.10;;;;;;;;;;4954027;28;20205;-75
2023/09/13 09:26:03;;;;;;;3.00;2.80;;;;;;;;;;4947872;28;20174;-76
2023/09/13 09:28:28;;;;;;;3.40;2.90;;;;;;;;;;4953178;28;20214;-76
2023/09/13 09:30:54;;;;;;;3.97;3.33;;;;;;;;;;4951732;28;20176;-75
2023/09/13 09:33:27;;;;;;;4.67;2.87;;;;;;;;;;4953056;28;20170;-76
2023/09/13 09:35:54;;;;;;;3.53;3.23;;;;;;;;;;4951296;28;20197;-76
2023/09/13 09:38:20;;;;;;;5.27;3.20;;;;;;;;;;4954116;28;20175;-76
2023/09/13 09:40:45;;;;;;;3.20;2.90;;;;;;;;;;4951159;28;20174;-75
2023/09/13 09:43:11;;;;;;;3.50;3.30;;;;;;;;;;4951112;28;20226;-75
2023/09/13 09:45:36;;;;;;;3.80;3.20;;;;;;;;;;4953980;28;20170;-76
2023/09/13 09:48:02;;;;;;;3.37;3.07;;;;;;;;;;4951719;28;20167;-76
2023/09/13 09:50:30;;;;;;;4.57;2.53;;;;;;;;;;4949454;28;22054;-76
2023/09/13 09:52:55;;;;;;;3.27;2.97;;;;;;;;;;4943356;28;20183;-76
2023/09/13 09:55:23;;;;;;;5.00;3.87;;;;;;;;;;4952899;28;20313;-76
2023/09/13 09:57:49;;;;;;;4.23;3.83;;;;;;;;;;4950596;28;20230;-76
2023/09/13 10:00:14;;;;;;;3.43;3.13;;;;;;;;;;4950406;28;20186;-76
2023/09/13 10:02:40;;;;;;;3.60;3.30;;;;;;;;;;4952124;28;20202;-76
2023/09/13 10:05:05;;;;;;;3.73;3.40;;;;;;;;;;4953161;28;20176;-76
2023/09/13 10:07:30;;;;;;;4.60;4.20;;;;;;;;;;4953770;28;20228;-76
2023/09/13 10:09:56;;;;;;;4.57;4.13;;;;;;;;;;4949916;28;20226;-76
2023/09/13 10:12:21;;;;;;;5.07;4.20;;;;;;;;;;4953563;28;20174;-76
2023/09/13 10:14:46;;;;;;;5.13;3.53;;;;;;;;;;4947881;28;20269;-76
2023/09/13 10:17:12;;;;;;;4.17;3.80;;;;;;;;;;4953665;28;20175;-76
2023/09/13 10:19:37;;;;;;;4.83;3.67;;;;;;;;;;4953257;28;20186;-76
2023/09/13 10:22:03;;;;;;;5.93;4.10;;;;;;;;;;4948900;28;20199;-76
2023/09/13 10:24:38;;;;;;;7.97;4.43;;;;;;;;;;4951381;28;20176;-76
2023/09/13 10:27:09;;;;;;;4.37;3.97;;;;;;;;;;4951537;28;20163;-76
2023/09/13 10:29:44;;;;;;;3.60;3.30;;;;;;;;;;4941572;28;20183;-76
2023/09/13 10:32:11;;;;;;;3.57;3.23;;;;;;;;;;4952059;28;20221;-76
2023/09/13 10:34:39;;;;;;;3.80;3.50;;;;;;;;;;4948749;28;20183;-76
2023/09/13 10:37:09;;;;;;;3.87;3.53;;;;;;;;;;4951674;28;20243;-76
2023/09/13 10:39:40;;;;;;;5.47;3.63;;;;;;;;;;4951206;28;20294;-76
2023/09/13 10:42:07;;;;;;;3.97;3.20;;;;;;;;;;4950884;28;20287;-76
2023/09/13 10:44:33;;;;;;;3.80;3.37;;;;;;;;;;4949999;28;20178;-76
2023/09/13 10:46:59;;;;;;;4.13;3.83;;;;;;;;;;4948925;28;20183;-76
2023/09/13 10:49:24;;;;;;;3.83;3.53;;;;;;;;;;4954653;28;20273;-76
2023/09/13 10:51:50;;;;;;;3.73;3.20;;;;;;;;;;4951858;28;20176;-76
2023/09/13 10:54:15;;;;;;;4.10;3.30;;;;;;;;;;4952417;28;20247;-76
2023/09/13 10:56:41;;;;;;;3.63;3.33;;;;;;;;;;4951375;28;20227;-76
2023/09/13 10:59:07;;;;;;;3.80;3.40;;;;;;;;;;4948795;28;20286;-76
2023/09/13 11:01:34;;;;;;;3.10;2.90;;;;;;;;;;4952506;28;20177;-76
2023/09/13 11:03:59;;;;;;;6.50;3.20;;;;;;;;;;4950478;28;20221;-76
2023/09/13 11:06:25;;;;;;;4.20;3.37;;;;;;;;;;4951153;28;20204;-76
2023/09/13 11:08:50;;;;;;;4.97;3.60;;;;;;;;;;4950058;28;20180;-76
2023/09/13 11:11:18;;;;;;;3.50;3.20;;;;;;;;;;4951961;28;20169;-76
2023/09/13 11:13:45;;;;;;;7.03;3.23;;;;;;;;;;4949649;28;20210;-76
2023/09/13 11:16:13;;;;;;;3.63;3.33;;;;;;;;;;4951342;28;20262;-76
2023/09/13 11:18:46;;;;;;;3.23;2.93;;;;;;;;;;4951943;28;20513;-76
2023/09/13 11:21:28;;;;;;;4.37;3.07;;;;;;;;;;4945457;28;20187;-76
2023/09/13 11:23:53;;;;;;;3.20;3.00;;;;;;;;;;4948923;28;20651;-76
2023/09/13 11:26:37;;;;;;;3.77;3.40;;;;;;;;;;4951736;28;20236;-76
2023/09/13 11:29:19;;;;;;;3.27;2.73;;;;;;;;;;4948445;28;20254;-76
2023/09/13 11:31:57;;;;;;;2.77;2.57;;;;;;;;;;4951011;28;20173;-76
2023/09/13 11:34:23;;;;;;;4.67;3.40;;;;;;;;;;4939146;28;20208;-85
2023/09/13 11:36:57;;;;;;;3.30;3.00;;;;;;;;;;4946507;28;20184;-76
2023/09/13 11:39:22;;;;;;;2.90;2.60;;;;;;;;;;4944338;29;20223;-76
2023/09/13 11:41:48;;;;;;;2.93;2.63;;;;;;;;;;4943273;28;20271;-76
2023/09/13 11:44:13;;;;;;;2.77;2.57;;;;;;;;;;4947926;29;20187;-76
2023/09/13 11:46:38;;;;;;;3.57;3.27;;;;;;;;;;4949469;29;20176;-76
2023/09/13 11:49:04;;;;;;;4.07;3.27;;;;;;;;;;4948471;28;20208;-75
2023/09/13 11:51:30;;;;;;;3.37;3.07;;;;;;;;;;4949381;28;20263;-76
2023/09/13 11:53:56;;;;;;;3.40;3.10;;;;;;;;;;4947758;28;20185;-76
2023/09/13 11:56:31;;;;;;;3.70;3.37;;;;;;;;;;4947553;28;20236;-76
2023/09/13 11:58:57;;;;;;;2.90;2.57;;;;;;;;;;4944989;28;20177;-76
2023/09/13 12:01:24;;;;;;;13.47;4.47;;;;;;;;;;4946805;28;20186;-76
2023/09/13 12:03:50;;;;;;;4.00;3.20;;;;;;;;;;4945833;28;20247;-76
2023/09/13 12:06:16;;;;;;;3.40;3.10;;;;;;;;;;4946365;28;20196;-76
2023/09/13 12:08:41;;;;;;;4.83;3.03;;;;;;;;;;4939612;28;20173;-75
2023/09/13 12:11:08;;;;;;;3.97;3.57;;;;;;;;;;4943069;28;20188;-76
2023/09/13 12:13:42;;;;;;;3.23;2.97;;;;;;;;;;4959943;28;20183;-76
2023/09/13 12:16:08;;;;;;;2.97;2.77;;;;;;;;;;4944367;28;20212;-76
2023/09/13 12:18:34;;;;;;;3.13;2.93;;;;;;;;;;4943468;28;20193;-76
2023/09/13 12:21:00;;;;;;;3.30;2.97;;;;;;;;;;4947026;28;20204;-76
2023/09/13 12:23:25;;;;;;;3.67;3.10;;;;;;;;;;4948574;29;20197;-75
2023/09/13 12:25:52;;;;;;;2.90;2.70;;;;;;;;;;4944068;29;20169;-76
2023/09/13 12:28:34;;;;;;;3.20;2.90;;;;;;;;;;4945889;28;20264;-76
2023/09/13 12:30:59;;;;;;;3.30;2.60;;;;;;;;;;4946912;29;20192;-75
2023/09/13 12:33:25;;;;;;;6.93;3.17;;;;;;;;;;4947083;28;20181;-76
2023/09/13 12:35:50;;;;;;;3.93;3.30;;;;;;;;;;4943978;29;20180;-76
2023/09/13 12:38:17;;;;;;;3.07;2.77;;;;;;;;;;4944969;28;20196;-75
2023/09/13 12:40:50;;;;;;;3.13;2.92;;;;;;;;;;4946051;29;20213;-76
2023/09/13 12:43:15;;;;;;;2.67;2.47;;;;;;;;;;4944936;28;20204;-76
2023/09/13 12:45:41;;;;;;;2.80;2.60;;;;;;;;;;4950826;28;20166;-76
2023/09/13 12:48:06;;;;;;;3.23;2.93;;;;;;;;;;4951723;28;20181;-76
2023/09/13 12:50:31;;;;;;;3.33;3.03;;;;;;;;;;4950100;29;20177;-76
2023/09/13 12:52:56;;;;;;;3.30;3.00;;;;;;;;;;4952438;29;20210;-76
2023/09/13 12:55:25;;;;;;;3.53;3.23;;;;;;;;;;4878989;28;2128410;-76
2023/09/13 12:57:52;;;;;;;3.33;3.03;;;;;;;;;;4952575;28;20185;-75
2023/09/13 13:00:17;;;;;;;3.58;3.28;;;;;;;;;;4951224;28;20197;-76
2023/09/13 13:02:46;;;;;;;3.78;3.38;;;;;;;;;;4951567;29;20223;-76
2023/09/13 13:05:15;;;;;;;2.90;2.70;;;;;;;;;;4951148;28;20188;-76
2023/09/13 13:07:40;;;;;;;3.05;2.85;;;;;;;;;;4948467;28;20232;-75
2023/09/13 13:10:06;;;;;;;5.50;3.20;;;;;;;;;;4945595;29;20284;-75
2023/09/13 13:12:31;;;;;;;4.75;3.30;;;;;;;;;;4945609;28;20178;-76
2023/09/13 13:14:57;;;;;;;3.15;2.90;;;;;;;;;;4943428;28;20205;-76
2023/09/13 13:17:23;;;;;;;3.67;3.00;;;;;;;;;;4950883;28;20182;-75
2023/09/13 13:19:49;;;;;;;3.35;3.05;;;;;;;;;;4949010;29;20196;-75
2023/09/13 13:22:17;;;;;;;3.10;2.90;;;;;;;;;;4946781;29;20217;-75
2023/09/13 13:24:42;;;;;;;3.45;3.10;;;;;;;;;;4939166;28;20167;-76
2023/09/13 13:27:07;;;;;;;3.65;3.20;;;;;;;;;;4951268;28;20181;-75
2023/09/13 13:29:36;;;;;;;5.88;4.05;;;;;;;;;;4950607;28;20261;-75
2023/09/13 13:32:02;;;;;;;4.80;3.00;;;;;;;;;;4952242;28;20178;-76
2023/09/13 13:34:27;;;;;;;3.13;2.92;;;;;;;;;;4948059;28;20192;-75
2023/09/13 13:36:53;;;;;;;3.17;2.90;;;;;;;;;;4949385;29;20178;-76
2023/09/13 13:39:18;;;;;;;4.13;2.70;;;;;;;;;;4952095;28;20177;-75
2023/09/13 13:41:43;;;;;;;3.05;2.80;;;;;;;;;;4948651;28;20623;-76
2023/09/13 13:44:11;;;;;;;3.60;2.65;;;;;;;;;;4946667;28;20230;-75
2023/09/13 13:46:36;;;;;;;3.38;3.08;;;;;;;;;;4951725;29;20177;-75
2023/09/13 13:49:02;;;;;;;3.65;3.15;;;;;;;;;;4949896;28;20272;-75
2023/09/13 13:51:28;;;;;;;3.15;2.85;;;;;;;;;;4944838;28;20188;-75
2023/09/13 13:53:54;;;;;;;2.60;2.40;;;;;;;;;;4951437;29;20182;-75
2023/09/13 13:56:19;;;;;;;3.60;3.30;;;;;;;;;;4946267;28;20319;-76
2023/09/13 13:58:44;;;;;;;3.53;2.80;;;;;;;;;;4947338;28;20268;-75
2023/09/13 14:01:10;;;;;;;3.08;2.78;;;;;;;;;;4951374;29;20176;-75
2023/09/13 14:03:35;;;;;;;4.30;3.20;;;;;;;;;;4947802;28;20205;-76
2023/09/13 14:06:02;;;;;;;5.00;3.30;;;;;;;;;;4951675;28;20187;-76
2023/09/13 14:08:28;;;;;;;2.95;2.72;;;;;;;;;;4944929;28;20200;-76
2023/09/13 14:10:53;;;;;;;3.28;2.97;;;;;;;;;;4942911;28;20272;-75
2023/09/13 14:13:19;;;;;;;4.28;3.10;;;;;;;;;;4949028;28;20220;-75
2023/09/13 14:15:45;;;;;;;3.92;3.55;;;;;;;;;;4949116;28;20189;-75
2023/09/13 14:18:10;;;;;;;3.40;3.10;;;;;;;;;;4937252;28;20193;-76
2023/09/13 14:20:41;;;;;;;3.30;3.03;;;;;;;;;;4948260;28;20240;-75
2023/09/13 14:23:06;;;;;;;3.53;3.00;;;;;;;;;;4947470;28;20209;-76
2023/09/13 14:25:31;;;;;;;3.03;2.83;;;;;;;;;;4948823;28;20178;-75
2023/09/13 14:27:56;;;;;;;3.60;3.30;;;;;;;;;;4945153;28;20216;-75
2023/09/13 14:30:21;;;;;;;3.67;3.38;;;;;;;;;;4950176;28;20192;-75
2023/09/13 14:32:47;;;;;;;4.15;3.40;;;;;;;;;;4948473;28;20181;-75
2023/09/13 14:35:13;;;;;;;4.32;3.92;;;;;;;;;;4947758;28;20185;-75
2023/09/13 14:37:38;;;;;;;4.38;3.60;;;;;;;;;;4949433;28;20186;-75